Time;durP1;ratioP1;P1;durP2;ratioP2;P2;SDS_P1;SDS_P2;PMS_P1;PMS_P2;Temp;Humidity;BMP_temperature;BMP_pressure;BME280_temperature;BME280_humidity;BME280_pressure;Samples;Min_cycle;Max_cycle;Signal;HPM_P1;HPM_P2
2023/08/04 00:00:15;;;;;;;13.10;4.43;;;;;;;15.30;100.00;99852.06;5006551;28;20930;-81
2023/08/04 00:02:50;;;;;;;14.07;4.07;;;;;;;15.32;100.00;99856.41;4999454;28;20428;-80
2023/08/04 00:05:18;;;;;;;11.48;4.32;;;;;;;15.35;100.00;99855.75;4999930;28;20433;-80
2023/08/04 00:07:51;;;;;;;10.80;3.95;;;;;;;15.34;100.00;99867.84;4994654;28;20440;-79
2023/08/04 00:10:25;;;;;;;9.27;4.00;;;;;;;15.32;100.00;99865.44;5011664;28;20438;-81
2023/08/04 00:12:58;;;;;;;13.65;4.03;;;;;;;15.28;100.00;99865.28;4996446;28;20422;-82
2023/08/04 00:15:26;;;;;;;12.50;3.90;;;;;;;15.31;100.00;99866.56;5015322;28;20547;-80
2023/08/04 00:18:03;;;;;;;13.45;3.97;;;;;;;15.26;100.00;99867.56;5026999;28;20437;-80
2023/08/04 00:20:36;;;;;;;10.13;4.00;;;;;;;15.32;100.00;99878.34;5003611;28;20803;-79
2023/08/04 00:23:09;;;;;;;10.82;4.00;;;;;;;15.35;100.00;99863.97;5001691;28;20483;-80
2023/08/04 00:25:42;;;;;;;11.25;3.83;;;;;;;15.27;100.00;99882.06;5007263;28;20426;-81
2023/08/04 00:28:15;;;;;;;10.18;3.58;;;;;;;15.21;100.00;99884.19;5000437;28;20442;-79
2023/08/04 00:30:49;;;;;;;10.75;3.78;;;;;;;15.22;100.00;99879.50;4997690;28;20430;-79
2023/08/04 00:33:18;;;;;;;10.23;3.63;;;;;;;15.24;100.00;99880.00;4997886;28;20803;-79
2023/08/04 00:35:51;;;;;;;11.02;3.72;;;;;;;15.20;100.00;99884.53;4997492;28;20444;-79
2023/08/04 00:38:26;;;;;;;9.77;3.35;;;;;;;15.14;100.00;99895.66;4997571;28;20426;-80
2023/08/04 00:40:59;;;;;;;11.85;3.72;;;;;;;15.11;100.00;99901.03;4998541;28;20416;-80
2023/08/04 00:43:32;;;;;;;13.77;3.90;;;;;;;15.12;100.00;99891.66;4998594;28;20952;-80
2023/08/04 00:46:00;;;;;;;9.73;3.80;;;;;;;15.07;100.00;99897.34;5014889;28;20466;-82
2023/08/04 00:48:35;;;;;;;10.80;3.77;;;;;;;15.08;100.00;99901.66;5029520;28;20447;-82
2023/08/04 00:51:08;;;;;;;15.57;3.67;;;;;;;15.08;100.00;99901.66;4999313;28;20446;-80
2023/08/04 00:53:42;;;;;;;11.95;3.70;;;;;;;15.09;100.00;99906.84;4998818;28;20440;-81
2023/08/04 00:56:16;;;;;;;12.27;3.40;;;;;;;15.16;100.00;99905.50;4999289;28;20434;-80
2023/08/04 00:58:49;;;;;;;12.65;3.72;;;;;;;15.16;100.00;99911.78;4995744;28;20437;-80
2023/08/04 01:01:23;;;;;;;9.20;3.20;;;;;;;15.16;100.00;99911.00;5000374;28;20789;-80
2023/08/04 01:04:00;;;;;;;9.90;3.00;;;;;;;15.17;100.00;99912.59;4998999;28;20442;-79
2023/08/04 01:06:41;;;;;;;12.38;3.40;;;;;;;15.14;100.00;99911.31;5008683;28;20433;-80
2023/08/04 01:09:26;;;;;;;9.73;3.33;;;;;;;15.19;100.00;99922.09;4997051;28;20451;-80
2023/08/04 01:12:08;;;;;;;11.90;3.20;;;;;;;15.16;100.00;99913.72;4998702;28;20767;-81
2023/08/04 01:14:43;;;;;;;9.67;3.40;;;;;;;15.14;100.00;99919.53;5000522;28;20425;-80
2023/08/04 01:17:25;;;;;;;12.63;3.60;;;;;;;15.12;100.00;99919.06;4997913;28;21115;-80
2023/08/04 01:19:56;;;;;;;10.30;3.47;;;;;;;15.04;100.00;99919.88;4996421;28;20417;-81
2023/08/04 01:22:31;;;;;;;12.32;3.38;;;;;;;14.98;100.00;99924.75;5005487;28;20439;-79
2023/08/04 01:25:04;;;;;;;11.98;3.17;;;;;;;15.00;100.00;99930.72;5011641;28;20914;-80
2023/08/04 01:27:40;;;;;;;12.13;3.33;;;;;;;14.96;100.00;99936.03;4998211;28;20425;-81
2023/08/04 01:30:16;;;;;;;13.05;3.20;;;;;;;14.96;100.00;99938.78;5031563;28;20417;-80
2023/08/04 01:32:49;;;;;;;9.88;3.10;;;;;;;14.92;100.00;99946.03;5006150;28;20892;-80
2023/08/04 01:35:24;;;;;;;10.93;3.10;;;;;;;14.77;100.00;99939.16;5004113;28;20455;-80
2023/08/04 01:37:59;;;;;;;8.95;3.20;;;;;;;14.77;100.00;99944.63;4998399;28;20432;-80
2023/08/04 01:40:32;;;;;;;11.52;3.40;;;;;;;14.70;100.00;99949.81;4999387;28;20418;-81
2023/08/04 01:43:06;;;;;;;9.90;3.10;;;;;;;14.64;100.00;99951.13;5001536;28;20446;-81
2023/08/04 01:45:34;;;;;;;8.98;2.90;;;;;;;14.49;100.00;99960.59;4998822;28;20888;-79
2023/08/04 01:48:07;;;;;;;10.07;3.15;;;;;;;14.43;100.00;99965.44;5000732;28;20433;-81
2023/08/04 01:50:35;;;;;;;12.18;3.33;;;;;;;14.39;100.00;99967.22;4997485;28;20455;-81
2023/08/04 01:53:10;;;;;;;11.07;3.30;;;;;;;14.37;100.00;99976.88;4999173;28;20449;-81
2023/08/04 01:55:43;;;;;;;10.95;3.67;;;;;;;14.35;100.00;99979.13;4997635;28;20438;-81
2023/08/04 01:58:16;;;;;;;9.82;3.35;;;;;;;14.29;100.00;99992.16;4994994;28;20425;-80
2023/08/04 02:00:49;;;;;;;12.63;3.42;;;;;;;14.23;100.00;99993.47;4998089;28;20430;-81
2023/08/04 02:03:23;;;;;;;9.60;3.47;;;;;;;14.17;100.00;99994.72;4995883;28;20445;-80
2023/08/04 02:05:51;;;;;;;15.10;3.80;;;;;;;14.14;100.00;99996.22;4998903;28;20438;-80
2023/08/04 02:08:26;;;;;;;8.38;3.30;;;;;;;14.15;100.00;99994.25;4992992;28;20438;-80
2023/08/04 02:10:59;;;;;;;9.50;3.22;;;;;;;14.06;100.00;100007.94;4995816;28;20425;-80
2023/08/04 02:13:32;;;;;;;9.27;3.40;;;;;;;14.02;100.00;100012.44;5028948;28;20438;-81
2023/08/04 02:16:00;;;;;;;10.38;3.28;;;;;;;14.01;100.00;100017.09;4995516;28;20515;-80
2023/08/04 02:18:34;;;;;;;9.02;3.35;;;;;;;13.90;100.00;100013.84;5005701;28;20436;-80
2023/08/04 02:21:07;;;;;;;8.98;3.17;;;;;;;13.81;100.00;100021.25;4993174;28;20430;-80
2023/08/04 02:23:42;;;;;;;11.70;3.55;;;;;;;13.89;100.00;100031.41;4997364;28;20504;-80
2023/08/04 02:26:15;;;;;;;8.75;3.30;;;;;;;13.85;100.00;100029.59;4998846;28;20434;-81
2023/08/04 02:28:50;;;;;;;10.52;3.42;;;;;;;13.88;100.00;100024.31;4997489;28;20451;-80
2023/08/04 02:31:25;;;;;;;11.27;3.63;;;;;;;13.80;100.00;100030.56;5000993;28;20436;-80
2023/08/04 02:33:58;;;;;;;10.20;3.25;;;;;;;13.85;100.00;100030.44;4999668;28;20432;-80
2023/08/04 02:36:31;;;;;;;15.57;3.37;;;;;;;13.96;100.00;100033.66;4994826;28;20530;-80
2023/08/04 02:39:06;;;;;;;12.68;3.95;;;;;;;13.90;100.00;100033.00;5012007;28;20449;-81
2023/08/04 02:41:34;;;;;;;10.40;3.40;;;;;;;13.92;100.00;100036.22;5010886;28;20443;-80
2023/08/04 02:44:07;;;;;;;8.23;3.50;;;;;;;13.91;100.00;100039.28;4994753;28;20442;-80
2023/08/04 02:46:35;;;;;;;9.10;3.20;;;;;;;13.99;100.00;100043.97;4994522;28;20430;-80
2023/08/04 02:49:08;;;;;;;9.23;3.20;;;;;;;13.98;100.00;100047.81;4997597;28;20434;-80
2023/08/04 02:51:42;;;;;;;11.83;3.60;;;;;;;14.00;100.00;100051.03;4997475;28;20426;-79
2023/08/04 02:54:16;;;;;;;14.90;3.50;;;;;;;13.95;100.00;100065.69;4994491;28;20432;-80
2023/08/04 02:56:49;;;;;;;12.00;3.97;;;;;;;13.92;100.00;100069.06;4998953;28;20439;-80
2023/08/04 02:59:17;;;;;;;11.70;3.50;;;;;;;13.94;100.00;100066.78;4997678;28;20418;-80
2023/08/04 03:01:50;;;;;;;10.93;3.75;;;;;;;13.92;100.00;100076.44;4994928;28;20428;-81
2023/08/04 03:04:24;;;;;;;10.93;3.50;;;;;;;13.95;100.00;100071.16;4997735;28;20474;-80
2023/08/04 03:06:57;;;;;;;10.65;3.70;;;;;;;13.87;100.00;100073.88;5002065;28;20442;-80
2023/08/04 03:09:27;;;;;;;12.53;3.90;;;;;;;13.93;100.00;100072.59;5029803;28;20434;-80
2023/08/04 03:11:55;;;;;;;13.20;4.00;;;;;;;13.93;100.00;100075.31;4999105;28;20424;-80
2023/08/04 03:14:29;;;;;;;10.13;3.55;;;;;;;13.97;100.00;100086.44;5001765;28;20788;-80
2023/08/04 03:17:02;;;;;;;10.73;3.70;;;;;;;14.01;100.00;100088.22;4997984;28;20421;-80
2023/08/04 03:19:35;;;;;;;12.77;4.18;;;;;;;14.00;100.00;100083.06;4998101;28;20778;-79
2023/08/04 03:22:08;;;;;;;11.88;3.95;;;;;;;14.02;100.00;100097.25;4999198;28;20428;-79
2023/08/04 03:24:43;;;;;;;11.57;3.90;;;;;;;14.06;100.00;100095.50;5002994;28;20791;-80
2023/08/04 03:27:16;;;;;;;12.98;3.80;;;;;;;14.07;100.00;100100.66;5000679;28;20437;-80
2023/08/04 03:29:49;;;;;;;11.75;4.20;;;;;;;13.96;100.00;100093.81;5007694;28;20426;-80
2023/08/04 03:32:23;;;;;;;10.50;4.10;;;;;;;13.92;100.00;100090.94;5000172;28;20422;-80
2023/08/04 03:34:56;;;;;;;13.73;4.22;;;;;;;13.91;100.00;100089.31;4998997;28;21498;-80
2023/08/04 03:37:29;;;;;;;11.38;4.18;;;;;;;13.92;100.00;100092.84;5000252;28;21096;-80
2023/08/04 03:39:59;;;;;;;12.63;4.40;;;;;;;13.88;100.00;100091.88;5000361;28;20771;-80
2023/08/04 03:42:32;;;;;;;14.00;4.10;;;;;;;13.88;100.00;100092.69;4997310;28;20445;-80
2023/08/04 03:45:06;;;;;;;13.25;3.83;;;;;;;13.74;100.00;100094.72;5007680;28;20439;-81
2023/08/04 03:47:39;;;;;;;10.70;4.30;;;;;;;13.78;100.00;100092.97;5000766;28;20438;-80
2023/08/04 03:50:12;;;;;;;12.25;4.15;;;;;;;13.70;100.00;100099.19;4998031;28;20444;-80
2023/08/04 03:52:46;;;;;;;13.45;4.47;;;;;;;13.70;100.00;100100.03;5004455;28;20430;-80
2023/08/04 03:55:20;;;;;;;13.88;4.20;;;;;;;13.68;100.00;100096.00;5002475;28;20442;-80
2023/08/04 03:57:48;;;;;;;13.48;4.60;;;;;;;13.57;100.00;100109.13;5000638;28;20430;-80
2023/08/04 04:00:22;;;;;;;12.27;4.38;;;;;;;13.57;100.00;100107.19;4997623;28;21020;-80
2023/08/04 04:02:50;;;;;;;12.93;4.50;;;;;;;13.50;100.00;100108.78;5031833;28;20437;-80
2023/08/04 04:05:23;;;;;;;12.80;4.35;;;;;;;13.57;100.00;100114.59;4997610;28;20426;-79
2023/08/04 04:07:56;;;;;;;12.63;4.30;;;;;;;13.56;100.00;100119.25;4999102;28;20827;-80
2023/08/04 04:10:31;;;;;;;16.23;4.50;;;;;;;13.56;100.00;100129.38;5015659;28;20442;-80
2023/08/04 04:13:04;;;;;;;10.23;4.47;;;;;;;13.65;100.00;100122.03;4997442;28;20439;-80
2023/08/04 04:15:37;;;;;;;11.82;4.40;;;;;;;13.57;100.00;100129.06;4994877;28;20461;-81
2023/08/04 04:18:10;;;;;;;11.27;4.75;;;;;;;13.63;100.00;100124.28;4996671;28;20788;-80
2023/08/04 04:20:43;;;;;;;11.55;4.68;;;;;;;13.67;100.00;100124.44;5000563;28;20439;-80
2023/08/04 04:23:16;;;;;;;12.63;5.00;;;;;;;13.75;100.00;100129.97;5006673;28;20462;-80
2023/08/04 04:25:51;;;;;;;12.10;4.75;;;;;;;13.86;100.00;100126.94;4997299;28;20428;-80
2023/08/04 04:28:19;;;;;;;11.80;5.20;;;;;;;13.94;100.00;100139.84;4997997;28;20430;-80
2023/08/04 04:30:52;;;;;;;11.40;4.50;;;;;;;14.11;100.00;100137.19;5006086;28;20438;-79
2023/08/04 04:33:25;;;;;;;12.93;4.72;;;;;;;14.21;100.00;100138.00;5001068;28;20429;-79
2023/08/04 04:35:58;;;;;;;13.93;4.85;;;;;;;14.22;100.00;100139.63;4998286;28;20422;-80
2023/08/04 04:38:32;;;;;;;11.90;4.60;;;;;;;14.23;100.00;100144.78;5017000;28;20431;-80
2023/08/04 04:41:06;;;;;;;13.20;5.00;;;;;;;14.35;100.00;100151.56;4998177;28;20436;-80
2023/08/04 04:43:41;;;;;;;13.98;5.00;;;;;;;14.35;100.00;100148.81;4999262;28;20425;-80
2023/08/04 04:46:15;;;;;;;11.57;4.80;;;;;;;14.46;100.00;100156.44;4997746;28;20430;-80
2023/08/04 04:48:48;;;;;;;10.13;4.80;;;;;;;14.51;100.00;100149.19;4995627;28;21083;-80
2023/08/04 04:51:16;;;;;;;14.48;5.05;;;;;;;14.53;100.00;100158.72;4998701;28;20417;-80
2023/08/04 04:53:49;;;;;;;13.68;5.28;;;;;;;14.43;100.00;100154.34;5001437;28;20439;-82
2023/08/04 04:56:27;;;;;;;13.40;4.90;;;;;;;14.53;100.00;100149.66;4997972;28;20436;-81
2023/08/04 04:58:55;;;;;;;13.50;4.75;;;;;;;14.54;100.00;100156.75;4996049;28;20914;-80
2023/08/04 05:01:28;;;;;;;12.75;4.95;;;;;;;14.42;100.00;100147.25;4993941;28;20918;-80
2023/08/04 05:04:01;;;;;;;13.02;4.80;;;;;;;14.50;100.00;100153.06;5026928;28;20430;-80
2023/08/04 05:06:34;;;;;;;17.25;4.95;;;;;;;14.54;100.00;100154.84;5027166;28;21019;-80
2023/08/04 05:09:08;;;;;;;13.10;4.63;;;;;;;14.57;100.00;100156.13;4994486;28;20428;-80
2023/08/04 05:11:43;;;;;;;12.43;4.80;;;;;;;14.65;100.00;100165.53;4999056;28;20532;-81
2023/08/04 05:14:16;;;;;;;11.82;4.80;;;;;;;14.63;100.00;100161.16;4997957;28;20436;-80
2023/08/04 05:16:49;;;;;;;15.65;4.72;;;;;;;14.64;100.00;100178.41;4993425;28;20457;-80
2023/08/04 05:19:23;;;;;;;12.60;4.60;;;;;;;14.74;100.00;100171.81;5010794;28;20440;-80
2023/08/04 05:21:51;;;;;;;11.07;4.20;;;;;;;14.71;100.00;100176.00;4998921;28;20423;-79
2023/08/04 05:24:24;;;;;;;12.27;4.50;;;;;;;14.72;100.00;100176.81;4998526;28;20430;-80
2023/08/04 05:26:59;;;;;;;10.27;4.22;;;;;;;14.78;100.00;100173.59;4998402;28;20432;-79
2023/08/04 05:29:32;;;;;;;10.10;4.30;;;;;;;14.73;100.00;100189.38;4999820;28;20459;-79
2023/08/04 05:32:06;;;;;;;12.25;4.35;;;;;;;14.77;100.00;100185.66;4994384;28;20450;-80
2023/08/04 05:34:39;;;;;;;10.93;4.20;;;;;;;14.76;100.00;100202.41;4996354;28;20465;-81
2023/08/04 05:37:07;;;;;;;16.90;4.70;;;;;;;14.80;100.00;100203.41;4994328;28;21096;-80
2023/08/04 05:39:41;;;;;;;11.57;4.28;;;;;;;14.73;100.00;100197.59;4994816;28;20441;-80
2023/08/04 05:42:15;;;;;;;11.40;4.40;;;;;;;14.74;100.00;100204.69;4998919;28;20452;-79
2023/08/04 05:44:48;;;;;;;14.52;4.45;;;;;;;14.85;100.00;100208.72;4997831;28;20435;-79
2023/08/04 05:47:25;;;;;;;12.48;4.60;;;;;;;14.89;100.00;100209.69;5005079;28;20459;-80
2023/08/04 05:49:58;;;;;;;10.25;4.20;;;;;;;14.79;100.00;100210.81;5029062;28;20450;-80
2023/08/04 05:52:31;;;;;;;15.60;4.78;;;;;;;14.76;100.00;100213.38;5001785;28;20440;-80
2023/08/04 05:55:00;;;;;;;9.88;4.40;;;;;;;14.85;100.00;100216.94;4996805;28;20523;-80
2023/08/04 05:57:34;;;;;;;12.27;4.20;;;;;;;14.88;100.00;100220.97;4993587;28;20482;-81
2023/08/04 06:00:09;;;;;;;12.20;4.50;;;;;;;14.95;100.00;100215.84;4989536;28;20432;-80
2023/08/04 06:02:37;;;;;;;12.52;4.28;;;;;;;15.29;100.00;100214.25;4988893;28;20434;-79
2023/08/04 06:05:11;;;;;;;12.73;4.55;;;;;;;15.21;100.00;100218.59;4989994;28;20445;-81
2023/08/04 06:07:39;;;;;;;13.07;4.38;;;;;;;15.24;100.00;100220.69;4992007;28;20435;-79
2023/08/04 06:10:12;;;;;;;10.23;3.90;;;;;;;15.26;100.00;100226.66;4994873;28;20434;-80
2023/08/04 06:12:47;;;;;;;12.20;4.13;;;;;;;15.47;100.00;100228.75;4988284;28;20428;-79
2023/08/04 06:15:21;;;;;;;12.43;3.83;;;;;;;15.79;100.00;100229.34;5004495;28;20442;-80
2023/08/04 06:17:54;;;;;;;12.00;3.53;;;;;;;15.83;100.00;100229.53;4990420;28;20462;-79
2023/08/04 06:20:27;;;;;;;10.88;3.53;;;;;;;15.89;100.00;100230.97;4991257;28;20424;-80
2023/08/04 06:23:00;;;;;;;10.13;3.33;;;;;;;15.96;100.00;100225.78;4990957;28;20776;-80
2023/08/04 06:25:33;;;;;;;10.95;3.50;;;;;;;16.02;100.00;100232.72;4994043;28;20441;-79
2023/08/04 06:28:08;;;;;;;8.90;3.50;;;;;;;15.97;100.00;100235.63;4986228;28;20507;-81
2023/08/04 06:30:41;;;;;;;8.90;3.15;;;;;;;15.91;100.00;100239.66;4988385;28;20444;-83
2023/08/04 06:33:09;;;;;;;9.20;3.03;;;;;;;15.83;100.00;100244.06;4990283;28;20461;-81
2023/08/04 06:35:41;;;;;;;9.40;2.90;;;;;;;15.92;100.00;100244.03;4991190;28;20432;-79
2023/08/04 06:38:14;;;;;;;7.53;2.72;;;;;;;15.94;100.00;100258.25;4988401;28;20437;-81
2023/08/04 06:40:47;;;;;;;9.20;2.97;;;;;;;16.18;100.00;100265.91;4992804;28;20432;-81
2023/08/04 06:43:16;;;;;;;8.48;2.97;;;;;;;16.02;100.00;100267.56;5031742;28;20489;-82
2023/08/04 06:45:50;;;;;;;8.77;2.85;;;;;;;16.03;100.00;100275.47;5022486;28;20592;-81
2023/08/04 06:48:24;;;;;;;10.95;3.03;;;;;;;15.90;100.00;100279.22;4995734;28;20849;-79
2023/08/04 06:50:52;;;;;;;12.30;2.92;;;;;;;15.96;100.00;100286.16;5023222;28;20434;-80
2023/08/04 06:53:25;;;;;;;9.88;3.20;;;;;;;15.92;100.00;100285.19;4999702;28;20434;-79
2023/08/04 06:55:54;;;;;;;8.10;2.70;;;;;;;16.01;100.00;100290.69;4992664;28;20435;-80
2023/08/04 06:58:23;;;;;;;12.80;5.05;;;;;;;15.92;100.00;100294.25;4990010;28;20437;-79
2023/08/04 07:00:56;;;;;;;13.53;3.70;;;;;;;15.90;100.00;100293.75;4987279;28;20434;-78
2023/08/04 07:03:29;;;;;;;8.90;3.25;;;;;;;15.85;100.00;100298.59;4996668;28;20433;-79
2023/08/04 07:06:03;;;;;;;8.30;2.80;;;;;;;16.00;100.00;100305.53;4995150;28;20430;-79
2023/08/04 07:08:36;;;;;;;8.73;3.05;;;;;;;16.00;100.00;100298.09;5000518;28;20429;-79
2023/08/04 07:11:04;;;;;;;6.78;2.75;;;;;;;16.02;100.00;100306.81;4976666;28;21265;-81
2023/08/04 07:13:39;;;;;;;11.57;2.97;;;;;;;16.04;100.00;100311.97;4981764;28;20440;-79
2023/08/04 07:16:07;;;;;;;12.27;3.15;;;;;;;16.05;100.00;100299.88;4981952;28;20538;-80
2023/08/04 07:18:40;;;;;;;11.80;3.40;;;;;;;15.99;100.00;100312.94;4993312;28;20437;-81
2023/08/04 07:21:10;;;;;;;7.15;3.00;;;;;;;16.06;100.00;100312.44;4984915;28;20435;-80
2023/08/04 07:23:43;;;;;;;8.82;2.90;;;;;;;16.08;100.00;100307.44;4981905;28;20444;-81
2023/08/04 07:26:12;;;;;;;6.50;2.95;;;;;;;16.11;100.00;100312.28;4991496;28;20445;-80
2023/08/04 07:28:46;;;;;;;9.95;2.92;;;;;;;16.19;100.00;100321.63;4967636;28;20429;-79
2023/08/04 07:31:15;;;;;;;10.85;2.95;;;;;;;16.14;100.00;100326.16;4974884;28;20922;-80
2023/08/04 07:33:43;;;;;;;11.03;2.93;;;;;;;16.15;100.00;100321.47;4979516;28;20792;-80
2023/08/04 07:36:11;;;;;;;8.82;3.15;;;;;;;16.14;100.00;100328.91;4968383;28;21384;-80
2023/08/04 07:38:44;;;;;;;10.43;3.30;;;;;;;16.30;100.00;100322.91;4974504;28;20436;-82
2023/08/04 07:41:19;;;;;;;13.25;3.05;;;;;;;16.27;100.00;100329.06;4973315;28;20444;-80
2023/08/04 07:43:53;;;;;;;11.17;3.10;;;;;;;16.25;100.00;100336.78;4976291;28;20455;-81
2023/08/04 07:46:28;;;;;;;10.38;3.00;;;;;;;16.50;100.00;100332.34;4972967;28;20443;-80
2023/08/04 07:49:02;;;;;;;9.52;3.20;;;;;;;16.43;100.00;100340.28;4969877;28;20446;-82
2023/08/04 07:51:30;;;;;;;6.53;2.88;;;;;;;16.38;100.00;100327.56;4978521;28;20441;-80
2023/08/04 07:54:03;;;;;;;22.17;11.88;;;;;;;16.68;100.00;100335.84;4977221;28;20428;-79
2023/08/04 07:56:36;;;;;;;8.43;3.30;;;;;;;16.48;100.00;100340.13;4980472;28;20438;-79
2023/08/04 07:59:06;;;;;;;13.77;6.70;;;;;;;16.46;100.00;100336.88;4969619;28;20432;-79
2023/08/04 08:01:39;;;;;;;8.15;3.50;;;;;;;16.48;100.00;100335.44;4975817;28;20938;-81
2023/08/04 08:04:12;;;;;;;10.57;3.65;;;;;;;16.49;100.00;100339.00;4991778;28;20440;-79
2023/08/04 08:06:40;;;;;;;8.35;3.40;;;;;;;16.41;100.00;100348.88;4979018;28;20937;-80
2023/08/04 08:09:09;;;;;;;7.70;3.25;;;;;;;16.40;100.00;100336.25;4974488;28;20498;-80
2023/08/04 08:11:42;;;;;;;11.07;3.70;;;;;;;16.45;100.00;100340.78;4951220;28;20452;-80
2023/08/04 08:14:12;;;;;;;10.45;3.20;;;;;;;16.56;100.00;100341.22;4978770;28;20452;-79
2023/08/04 08:16:40;;;;;;;7.85;3.30;;;;;;;16.64;100.00;100335.72;4976042;28;20447;-79
2023/08/04 08:19:13;;;;;;;11.98;3.50;;;;;;;16.78;100.00;100334.69;4970054;28;21476;-80
2023/08/04 08:21:42;;;;;;;9.15;3.30;;;;;;;16.92;100.00;100343.53;4977058;28;20432;-80
2023/08/04 08:24:10;;;;;;;8.00;2.80;;;;;;;16.95;100.00;100344.81;4976298;28;20433;-79
2023/08/04 08:26:43;;;;;;;8.65;3.10;;;;;;;17.11;100.00;100345.03;4978234;28;20447;-80
2023/08/04 08:29:13;;;;;;;7.65;2.90;;;;;;;17.14;100.00;100342.44;4976661;28;20432;-79
2023/08/04 08:31:47;;;;;;;8.43;3.25;;;;;;;17.36;100.00;100353.47;4979711;28;22295;-79
2023/08/04 08:34:20;;;;;;;7.50;2.43;;;;;;;17.28;100.00;100349.66;4981052;28;20456;-79
2023/08/04 08:36:50;;;;;;;9.13;2.70;;;;;;;17.51;100.00;100353.69;5000819;28;21621;-81
2023/08/04 08:39:23;;;;;;;6.63;2.35;;;;;;;17.49;100.00;100355.16;4978568;28;20876;-80
2023/08/04 08:41:52;;;;;;;8.83;2.40;;;;;;;17.37;100.00;100360.59;4970475;28;20950;-80
2023/08/04 08:44:26;;;;;;;7.97;2.90;;;;;;;17.26;100.00;100363.72;4978628;28;21133;-80
2023/08/04 08:47:00;;;;;;;7.35;2.60;;;;;;;17.74;100.00;100363.56;4994458;28;20845;-79
2023/08/04 08:49:41;;;;;;;6.82;2.47;;;;;;;18.07;100.00;100369.13;4979425;28;20447;-79
2023/08/04 08:52:14;;;;;;;11.73;2.70;;;;;;;18.17;100.00;100367.88;4972809;28;20431;-80
2023/08/04 08:54:49;;;;;;;7.80;2.70;;;;;;;18.01;100.00;100368.53;4975186;28;20429;-80
2023/08/04 08:57:17;;;;;;;4.37;2.30;;;;;;;18.32;100.00;100367.25;4973830;28;21338;-81
2023/08/04 08:59:51;;;;;;;8.65;2.58;;;;;;;18.69;100.00;100359.06;4971148;28;20447;-80
2023/08/04 09:02:25;;;;;;;8.10;2.50;;;;;;;18.67;100.00;100369.63;4980087;28;20431;-80
2023/08/04 09:04:59;;;;;;;7.07;2.70;;;;;;;18.53;100.00;100369.13;4978509;28;20438;-79
2023/08/04 09:07:32;;;;;;;7.32;2.38;;;;;;;18.08;100.00;100378.19;4977752;28;20439;-81
2023/08/04 09:10:08;;;;;;;6.78;2.50;;;;;;;17.84;100.00;100380.47;4976930;28;20452;-78
2023/08/04 09:12:44;;;;;;;6.55;2.20;;;;;;;17.60;100.00;100383.09;4957363;28;21014;-78
2023/08/04 09:15:18;;;;;;;8.75;2.90;;;;;;;17.40;100.00;100387.41;4981701;28;21118;-79
2023/08/04 09:17:47;;;;;;;6.18;2.65;;;;;;;17.27;100.00;100403.03;4982322;28;20433;-79
2023/08/04 09:20:30;;;;;;;9.27;2.50;;;;;;;17.19;100.00;100399.19;4978852;28;21662;-80
2023/08/04 09:22:58;;;;;;;5.32;2.20;;;;;;;17.11;100.00;100402.78;4974616;28;20876;-78
2023/08/04 09:25:26;;;;;;;6.38;2.80;;;;;;;17.26;100.00;100406.91;4974981;28;20444;-80
2023/08/04 09:28:14;;;;;;;6.68;2.65;;;;;;;17.39;100.00;100408.63;4977303;28;20436;-80
2023/08/04 09:31:00;;;;;;;8.13;2.47;;;;;;;17.57;100.00;100405.78;4978043;28;20432;-79
2023/08/04 09:33:35;;;;;;;5.50;2.20;;;;;;;17.66;100.00;100404.56;4972322;28;20433;-79
2023/08/04 09:36:09;;;;;;;6.43;2.30;;;;;;;17.76;100.00;100413.56;4975307;28;20440;-79
2023/08/04 09:38:39;;;;;;;4.68;2.20;;;;;;;17.78;100.00;100419.53;4967992;28;20432;-81
2023/08/04 09:41:13;;;;;;;8.10;2.23;;;;;;;17.51;100.00;100413.38;4971999;28;20806;-79
2023/08/04 09:43:48;;;;;;;7.82;2.30;;;;;;;17.40;100.00;100424.00;4979436;28;20934;-78
2023/08/04 09:46:22;;;;;;;4.90;2.10;;;;;;;16.86;100.00;100435.50;4980749;28;20892;-79
2023/08/04 09:48:58;;;;;;;8.30;2.35;;;;;;;16.76;100.00;100436.66;4986415;28;20436;-79
2023/08/04 09:51:41;;;;;;;4.50;2.10;;;;;;;16.68;100.00;100434.75;4975834;28;21053;-79
2023/08/04 09:54:14;;;;;;;6.43;2.35;;;;;;;16.62;100.00;100434.13;4970787;28;20813;-78
2023/08/04 09:56:48;;;;;;;4.68;2.20;;;;;;;16.49;100.00;100435.94;4969683;28;20445;-79
2023/08/04 09:59:18;;;;;;;6.63;2.60;;;;;;;16.61;100.00;100443.53;4977697;28;20445;-77
2023/08/04 10:01:53;;;;;;;7.25;2.47;;;;;;;16.60;100.00;100441.06;4976543;28;20459;-78
2023/08/04 10:04:22;;;;;;;7.68;2.60;;;;;;;16.74;100.00;100446.41;4973568;28;20438;-80
2023/08/04 10:06:55;;;;;;;9.32;2.83;;;;;;;16.86;100.00;100445.69;4983243;28;20443;-80
2023/08/04 10:09:24;;;;;;;6.18;2.30;;;;;;;16.82;100.00;100451.03;4973999;28;20882;-80
2023/08/04 10:11:53;;;;;;;4.57;1.80;;;;;;;16.94;100.00;100451.19;4946578;28;20444;-79
2023/08/04 10:14:27;;;;;;;2.83;1.50;;;;;;;16.90;100.00;100446.69;4973665;28;20436;-79
2023/08/04 10:17:02;;;;;;;3.95;1.60;;;;;;;17.03;100.00;100450.34;4969019;28;20436;-78
2023/08/04 10:19:31;;;;;;;2.13;1.30;;;;;;;16.92;100.00;100450.72;4982174;28;20428;-78
2023/08/04 10:22:05;;;;;;;3.57;1.40;;;;;;;16.87;100.00;100456.38;4970744;28;20942;-81
2023/08/04 10:24:42;;;;;;;4.57;1.50;;;;;;;16.86;100.00;100462.19;4977252;28;20445;-78
2023/08/04 10:27:18;;;;;;;2.78;0.98;;;;;;;16.91;100.00;100465.59;4974051;28;20522;-79
2023/08/04 10:30:02;;;;;;;3.20;1.38;;;;;;;16.97;100.00;100463.47;4975729;28;20998;-79
2023/08/04 10:32:38;;;;;;;3.35;1.17;;;;;;;17.20;100.00;100468.75;4991797;28;20428;-79
2023/08/04 10:35:21;;;;;;;3.78;1.20;;;;;;;17.15;100.00;100461.47;4970402;28;21045;-79
2023/08/04 10:38:00;;;;;;;5.90;1.48;;;;;;;17.18;100.00;100463.59;4967781;28;20444;-79
2023/08/04 10:40:29;;;;;;;6.40;1.40;;;;;;;17.19;100.00;100470.66;4983059;28;20437;-79
2023/08/04 10:43:04;;;;;;;6.07;3.35;;;;;;;17.26;100.00;100468.25;4972155;28;21181;-78
2023/08/04 10:45:52;;;;;;;3.25;1.30;;;;;;;17.32;100.00;100475.16;4987993;28;20421;-78
2023/08/04 10:48:27;;;;;;;2.63;1.35;;;;;;;17.22;100.00;100460.97;4987355;28;20425;-78
2023/08/04 10:51:00;;;;;;;5.03;1.67;;;;;;;17.32;100.00;100463.34;4977341;28;20469;-79
2023/08/04 10:53:29;;;;;;;3.05;1.50;;;;;;;17.77;100.00;100471.03;4966824;28;20424;-78
2023/08/04 10:56:07;;;;;;;7.38;1.50;;;;;;;18.12;100.00;100465.31;4972129;28;20485;-79
2023/08/04 10:58:35;;;;;;;4.97;1.63;;;;;;;18.52;100.00;100461.22;4969538;28;20438;-80
2023/08/04 11:01:08;;;;;;;4.70;1.80;;;;;;;18.82;100.00;100459.13;4998758;28;20437;-79
2023/08/04 11:03:38;;;;;;;4.43;1.50;;;;;;;18.68;100.00;100467.72;4987823;28;20434;-80
2023/08/04 11:06:07;;;;;;;5.53;1.60;;;;;;;18.82;100.00;100455.56;4970092;28;20482;-78
2023/08/04 11:08:40;;;;;;;5.03;1.63;;;;;;;18.97;100.00;100445.84;4970856;28;20432;-79
2023/08/04 11:11:09;;;;;;;3.65;1.60;;;;;;;18.95;100.00;100460.00;4972004;28;20432;-78
2023/08/04 11:13:42;;;;;;;3.22;1.48;;;;;;;18.58;100.00;100461.81;4945776;28;21011;-80
2023/08/04 11:16:10;;;;;;;6.30;1.58;;;;;;;18.41;100.00;100471.03;4971251;28;21248;-79
2023/08/04 11:18:44;;;;;;;5.60;1.95;;;;;;;18.06;100.00;100466.63;4973184;28;20465;-78
2023/08/04 11:21:18;;;;;;;4.57;1.75;;;;;;;17.91;100.00;100469.97;4968457;28;20448;-79
2023/08/04 11:23:51;;;;;;;4.47;2.20;;;;;;;17.77;100.00;100475.72;4968592;28;20443;-78
2023/08/04 11:26:25;;;;;;;7.00;2.80;;;;;;;17.88;100.00;100476.94;4979814;28;20432;-79
2023/08/04 11:28:59;;;;;;;3.45;1.70;;;;;;;17.96;100.00;100470.59;4983167;28;20431;-78
2023/08/04 11:31:27;;;;;;;5.53;1.80;;;;;;;18.18;100.00;100474.16;4975151;28;20428;-78
2023/08/04 11:34:02;;;;;;;6.88;1.90;;;;;;;18.26;100.00;100476.03;4970528;28;20435;-78
2023/08/04 11:36:35;;;;;;;5.95;1.83;;;;;;;18.15;100.00;100472.88;4977094;28;20432;-78
2023/08/04 11:39:09;;;;;;;4.05;1.70;;;;;;;18.15;100.00;100477.59;4976784;28;21227;-78